Estación Meteorológica Peña el Pijo (Robertgarden) [ 02/03/23 03:41:38 CET ]

Fecha Hora Presion(HPa) Temp (°C) Humedad % Rocio (°C) Viento ( m/s) Direccion Lluvia 1Hora(mm) Lluvia 24H(mm) LLuvia Total(mm)
2010-Oct-23 01:01:19 1012.100 8.1 83 5.4         169.90
2010-Oct-23 02:01:14 1011.900 8.2 84 5.7         169.90
2010-Oct-23 03:03:23 1011.500 8.1 85 5.7         169.90
2010-Oct-23 04:01:13 1011.100 7.3 86 5.1         169.90
2010-Oct-23 05:01:14 1010.700 6.6 87 4.6         169.90
2010-Oct-23 06:01:13 1010.800 6.3 89 4.6         169.90
2010-Oct-23 07:01:14 1010.600 6.3 89 4.6         169.90
2010-Oct-23 08:01:16 1010.400 5.6 89 3.9         169.90
2010-Oct-23 09:01:13 1010.500 5.1 89 3.4         169.90
2010-Oct-23 10:01:18 1011.100 7.2 91 5.8         169.90
2010-Oct-23 11:01:15 1011.300 13.9 69 8.3         169.90
2010-Oct-23 12:01:12 1010.900 17.4 55 8.2         169.90
2010-Oct-23 13:01:14 1010.400 21.3 42 7.8         169.90
2010-Oct-23 14:01:11 1010.100 19.9 41 6.2         169.90
2010-Oct-23 15:01:13 1009.500 19.8 42 6.5 1.5 NE     169.90
2010-Oct-23 16:01:11 1009.400 19.3 44 6.7         169.90
2010-Oct-23 17:01:13 1009.100 21.1 41 7.3         169.90
2010-Oct-23 18:01:16 1009.300 17.1 48 6.0         169.90
2010-Oct-23 19:01:15 1009.200 15.2 56 6.5         169.90
2010-Oct-23 20:01:15 1009.700 14.2 61 6.8         169.90
2010-Oct-23 21:01:22 1010.000 11.8 67 5.8         169.90
2010-Oct-23 22:01:19 1010.500 8.8 76 4.8         169.90
2010-Oct-23 23:01:11 1010.800 7.4 81 4.4         169.90

Temperatura Máxima:21°    Temperatura Mínima:
Presión Máxima:1012.100 Hpa    Presión Mínima:1009.100 Hpa


Volver